createdAt,value
2023-01-17T00:00:49.502Z,95445.03
2023-01-17T00:02:54.471Z,95456.56
2023-01-17T00:05:12.031Z,95445.03
2023-01-17T00:07:33.405Z,95454.16
2023-01-17T00:09:57.005Z,95461.53
2023-01-17T00:12:05.482Z,95472.44
2023-01-17T00:14:10.371Z,95465.19
2023-01-17T00:16:15.289Z,95471.03
2023-01-17T00:18:20.245Z,95473.69
2023-01-17T00:20:40.707Z,95472.81
2023-01-17T00:22:59.355Z,95478.66
2023-01-17T00:25:22.926Z,95476.88
2023-01-17T00:27:25.455Z,95484.91
2023-01-17T00:29:27.690Z,95494.13
2023-01-17T00:31:29.909Z,95489.22
2023-01-17T00:33:32.766Z,95502.28
2023-01-17T00:35:35.129Z,95501.59
2023-01-17T00:37:37.297Z,95501.44
2023-01-17T00:39:39.757Z,95501.13
2023-01-17T00:41:44.496Z,95499.06
2023-01-17T00:44:01.875Z,95499.06
2023-01-17T00:46:20.387Z,95495.72
2023-01-17T00:48:37.771Z,95517.22
2023-01-17T00:50:55.160Z,95515.59
2023-01-17T00:53:12.530Z,95519.69
2023-01-17T00:55:30.205Z,95520.41
2023-01-17T00:57:50.191Z,95530.22
2023-01-17T01:00:08.064Z,95531.78
2023-01-17T01:02:28.414Z,95541.59
2023-01-17T01:04:46.087Z,95545.13
2023-01-17T01:07:03.853Z,95545.78
2023-01-17T01:09:22.906Z,95550.50
2023-01-17T01:11:40.290Z,95559.59
2023-01-17T01:14:00.697Z,95551.38
2023-01-17T01:16:19.033Z,95571.25
2023-01-17T01:18:36.487Z,95557.81
2023-01-17T01:20:54.637Z,95566.16
2023-01-17T01:23:12.030Z,95564.41
2023-01-17T01:25:29.918Z,95572.44
2023-01-17T01:27:47.305Z,95570.31
2023-01-17T01:30:07.367Z,95574.50
2023-01-17T01:32:24.729Z,95570.47
2023-01-17T01:34:30.000Z,95579.75
2023-01-17T01:36:35.298Z,95578.72
2023-01-17T01:38:40.924Z,95582.88
2023-01-17T01:40:49.645Z,95592.91
2023-01-17T01:42:56.337Z,95588.66
2023-01-17T01:45:04.445Z,95598.00
2023-01-17T01:47:10.938Z,95599.91
2023-01-17T01:49:21.365Z,95603.84
2023-01-17T01:51:34.556Z,95601.25
2023-01-17T01:53:45.462Z,95608.81
2023-01-17T01:55:53.154Z,95608.91
2023-01-17T01:58:02.909Z,95607.94
2023-01-17T02:00:18.362Z,95609.84
2023-01-17T02:02:23.337Z,95605.03
2023-01-17T02:04:30.579Z,95611.03
2023-01-17T02:06:40.096Z,95612.50
2023-01-17T02:08:45.298Z,95623.47
2023-01-17T02:10:51.228Z,95637.63
2023-01-17T02:12:58.527Z,95631.13
2023-01-17T02:15:04.782Z,95637.72
2023-01-17T02:17:24.594Z,95638.63
2023-01-17T02:20:18.806Z,95647.25
2023-01-17T02:22:55.605Z,95650.53
2023-01-17T02:25:31.463Z,95655.28
2023-01-17T02:27:52.963Z,95643.31
2023-01-17T02:30:37.849Z,95645.06
2023-01-17T02:33:02.488Z,95654.88
2023-01-17T02:35:16.431Z,95659.03
2023-01-17T02:37:28.513Z,95666.56
2023-01-17T02:39:40.251Z,95676.50
2023-01-17T02:41:49.945Z,95671.81
2023-01-17T02:43:56.481Z,95666.97
2023-01-17T02:46:04.124Z,95670.41
2023-01-17T02:48:11.402Z,95673.09
2023-01-17T02:50:20.910Z,95674.69
2023-01-17T02:52:44.975Z,95682.31
2023-01-17T02:55:10.703Z,95678.56
2023-01-17T02:57:35.580Z,95674.06
2023-01-17T02:59:53.410Z,95679.91
2023-01-17T03:02:15.213Z,95678.44
2023-01-17T03:04:27.331Z,95678.44
2023-01-17T03:06:39.515Z,95690.09
2023-01-17T03:08:47.354Z,95686.94
2023-01-17T03:10:53.048Z,95698.69
2023-01-17T03:13:00.882Z,95700.44
2023-01-17T03:15:12.174Z,95694.81
2023-01-17T03:17:19.994Z,95696.53
2023-01-17T03:19:24.906Z,95704.78
2023-01-17T03:21:30.695Z,95710.34
2023-01-17T03:23:35.613Z,95696.31
2023-01-17T03:25:40.561Z,95708.06
2023-01-17T03:27:45.846Z,95702.31
2023-01-17T03:29:51.079Z,95707.41
2023-01-17T03:31:56.027Z,95714.25
2023-01-17T03:34:03.476Z,95717.34
2023-01-17T03:36:10.122Z,95720.63
2023-01-17T03:38:15.035Z,95723.91
2023-01-17T03:40:21.100Z,95732.09
2023-01-17T03:42:26.009Z,95730.34
2023-01-17T03:44:31.952Z,95726.47
2023-01-17T03:46:37.293Z,95724.84
2023-01-17T03:48:44.407Z,95722.31
2023-01-17T03:50:54.106Z,95724.16
2023-01-17T03:52:59.754Z,95731.00
2023-01-17T03:55:05.185Z,95733.72
2023-01-17T03:57:10.259Z,95735.75
2023-01-17T03:59:16.074Z,95750.00
2023-01-17T04:01:21.983Z,95754.25
2023-01-17T04:03:27.096Z,95752.44
2023-01-17T04:05:32.541Z,95761.69
2023-01-17T04:07:40.441Z,95766.75
2023-01-17T04:09:45.349Z,95763.16
2023-01-17T04:11:51.004Z,95763.03
2023-01-17T04:13:56.497Z,95767.13
2023-01-17T04:16:01.493Z,95773.81
2023-01-17T04:18:08.050Z,95769.63
2023-01-17T04:20:18.994Z,95777.78
2023-01-17T04:22:24.291Z,95777.66
2023-01-17T04:24:32.174Z,95777.66
2023-01-17T04:26:37.327Z,95776.06
2023-01-17T04:28:42.473Z,95781.88
2023-01-17T04:30:47.899Z,95780.22
2023-01-17T04:32:53.965Z,95784.50
2023-01-17T04:34:58.812Z,95787.84
2023-01-17T04:37:03.705Z,95794.41
2023-01-17T04:39:09.936Z,95793.78
2023-01-17T04:41:17.730Z,95794.84
2023-01-17T04:43:23.490Z,95802.09
2023-01-17T04:45:29.313Z,95805.44
2023-01-17T04:47:36.021Z,95810.59
2023-01-17T04:49:43.332Z,95814.06
2023-01-17T04:51:50.281Z,95820.88
2023-01-17T04:53:55.127Z,95822.56
2023-01-17T04:56:01.062Z,95827.66
2023-01-17T04:58:08.910Z,95828.63
2023-01-17T05:00:15.770Z,95834.06
2023-01-17T05:02:20.661Z,95830.84
2023-01-17T05:04:26.164Z,95831.66
2023-01-17T05:06:31.049Z,95837.78
2023-01-17T05:08:35.941Z,95835.91
2023-01-17T05:10:41.214Z,95834.31
2023-01-17T05:12:47.784Z,95842.38
2023-01-17T05:14:56.381Z,95844.09
2023-01-17T05:17:03.119Z,95850.91
2023-01-17T05:19:08.234Z,95857.25
2023-01-17T05:21:13.088Z,95848.25
2023-01-17T05:23:18.361Z,95865.34
2023-01-17T05:25:23.230Z,95858.63
2023-01-17T05:27:29.633Z,95861.88
2023-01-17T05:29:34.906Z,95866.09
2023-01-17T05:31:42.370Z,95861.22
2023-01-17T05:33:47.307Z,95862.31
2023-01-17T05:35:52.162Z,95866.75
2023-01-17T05:37:57.328Z,95864.41
2023-01-17T05:40:02.211Z,95866.25
2023-01-17T05:42:07.837Z,95864.63
2023-01-17T05:44:13.184Z,95867.28
2023-01-17T05:46:19.380Z,95864.84
2023-01-17T05:48:27.034Z,95875.53
2023-01-17T05:50:35.807Z,95869.81
2023-01-17T05:52:40.691Z,95868.19
2023-01-17T05:54:45.726Z,95869.38
2023-01-17T05:56:50.582Z,95877.06
2023-01-17T05:58:55.604Z,95870.81
2023-01-17T06:01:01.679Z,95880.72
2023-01-17T06:03:07.048Z,95883.94
2023-01-17T06:05:14.800Z,95887.41
2023-01-17T06:07:20.545Z,95890.09
2023-01-17T06:09:25.411Z,95885.25
2023-01-17T06:11:30.554Z,95883.56
2023-01-17T06:13:35.425Z,95891.59
2023-01-17T06:15:42.054Z,95886.69
2023-01-17T06:17:47.260Z,95881.25
2023-01-17T06:19:52.146Z,95891.16
2023-01-17T06:21:59.617Z,95898.97
2023-01-17T06:24:04.973Z,95895.13
2023-01-17T06:26:10.228Z,95896.88
2023-01-17T06:28:17.649Z,95894.84
2023-01-17T06:30:22.635Z,95896.22
2023-01-17T06:32:27.598Z,95899.97
2023-01-17T06:34:32.972Z,95903.22
2023-01-17T06:36:37.812Z,95906.00
2023-01-17T06:38:45.278Z,95897.16
2023-01-17T06:40:50.583Z,95898.78
2023-01-17T06:42:55.504Z,95901.72
2023-01-17T06:45:00.351Z,95905.47
2023-01-17T06:47:05.584Z,95908.28
2023-01-17T06:49:11.503Z,95915.94
2023-01-17T06:51:16.405Z,95911.41
2023-01-17T06:53:21.343Z,95918.00
2023-01-17T06:55:29.349Z,95916.66
2023-01-17T06:57:34.598Z,95915.16
2023-01-17T06:59:39.476Z,95917.66
2023-01-17T07:01:44.353Z,95920.28
2023-01-17T07:03:49.272Z,95923.00
2023-01-17T07:05:56.096Z,95925.50
2023-01-17T07:08:01.066Z,95933.22
2023-01-17T07:10:06.976Z,95930.75
2023-01-17T07:12:14.444Z,95935.69
2023-01-17T07:14:19.695Z,95942.25
2023-01-17T07:16:25.407Z,95937.59
2023-01-17T07:18:30.441Z,95945.84
2023-01-17T07:20:35.842Z,95946.75
2023-01-17T07:22:40.735Z,95952.44
2023-01-17T07:24:45.995Z,95954.22
2023-01-17T07:26:52.596Z,95957.41
2023-01-17T07:29:01.211Z,95957.72
2023-01-17T07:31:10.656Z,95956.03
2023-01-17T07:33:15.765Z,95960.19
2023-01-17T07:35:20.691Z,95956.16
2023-01-17T07:37:26.390Z,95950.69
2023-01-17T07:39:31.314Z,95959.63
2023-01-17T07:41:41.397Z,95958.84
2023-01-17T07:43:46.434Z,95959.50
2023-01-17T07:45:54.260Z,95957.56
2023-01-17T07:48:00.191Z,95942.81
2023-01-17T07:50:06.496Z,95944.34
2023-01-17T07:52:12.149Z,95941.94
2023-01-17T07:54:17.457Z,95952.50
2023-01-17T07:56:22.782Z,95954.81
2023-01-17T07:58:27.929Z,95953.84
2023-01-17T08:00:33.215Z,95948.03
2023-01-17T08:02:40.666Z,95944.50
2023-01-17T08:04:45.529Z,95943.69
2023-01-17T08:06:51.728Z,95948.44
2023-01-17T08:08:59.094Z,95951.69
2023-01-17T08:11:04.072Z,95956.53
2023-01-17T08:13:08.936Z,95954.09
2023-01-17T08:15:14.781Z,95959.97
2023-01-17T08:17:21.930Z,95945.31
2023-01-17T08:19:29.375Z,95946.94
2023-01-17T08:21:34.718Z,95952.72
2023-01-17T08:23:39.600Z,95953.50
2023-01-17T08:25:44.877Z,95959.97
2023-01-17T08:27:49.788Z,95951.63
2023-01-17T08:29:54.983Z,95944.13
2023-01-17T08:31:59.911Z,95946.44
2023-01-17T08:34:04.856Z,95942.09
2023-01-17T08:36:12.533Z,95945.94
2023-01-17T08:38:17.563Z,95944.94
2023-01-17T08:40:23.111Z,95953.75
2023-01-17T08:42:28.229Z,95954.34
2023-01-17T08:44:33.461Z,95954.88
2023-01-17T08:46:41.163Z,95948.09
2023-01-17T08:48:46.273Z,95956.31
2023-01-17T08:50:51.166Z,95952.19
2023-01-17T08:53:01.615Z,95954.56
2023-01-17T08:55:10.113Z,95952.84
2023-01-17T08:57:15.177Z,95952.63
2023-01-17T08:59:20.033Z,95950.09
2023-01-17T09:01:24.994Z,95955.75
2023-01-17T09:03:29.959Z,95957.22
2023-01-17T09:05:34.885Z,95954.06
2023-01-17T09:07:40.213Z,95964.78
2023-01-17T09:09:47.669Z,95958.81
2023-01-17T09:11:52.525Z,95964.94
2023-01-17T09:13:57.385Z,95963.53
2023-01-17T09:16:02.904Z,95962.34
2023-01-17T09:18:08.205Z,95955.25
2023-01-17T09:20:15.051Z,95956.19
2023-01-17T09:22:20.262Z,95957.25
2023-01-17T09:24:25.171Z,95955.91
2023-01-17T09:26:33.374Z,95959.53
2023-01-17T09:28:42.841Z,95950.31
2023-01-17T09:30:47.730Z,95952.25
2023-01-17T09:32:56.007Z,95953.63
2023-01-17T09:35:01.070Z,95949.00
2023-01-17T09:37:08.041Z,95949.66
2023-01-17T09:39:15.296Z,95944.56
2023-01-17T09:41:27.731Z,95957.50
2023-01-17T09:43:44.000Z,95957.38
2023-01-17T09:45:49.007Z,95960.28
2023-01-17T09:47:57.374Z,95953.38
2023-01-17T09:50:12.267Z,95952.88
2023-01-17T09:52:21.474Z,95953.97
2023-01-17T09:54:30.124Z,95955.72
2023-01-17T09:56:41.395Z,95959.31
2023-01-17T09:59:18.965Z,95960.06
2023-01-17T10:01:35.898Z,95963.59
2023-01-17T10:04:07.927Z,95967.31
2023-01-17T10:06:38.864Z,95964.75
2023-01-17T10:09:08.388Z,95971.66
2023-01-17T10:11:32.427Z,95969.72
2023-01-17T10:13:48.271Z,95967.28
2023-01-17T10:16:12.078Z,95975.81
2023-01-17T10:18:59.432Z,95975.69
2023-01-17T10:21:15.308Z,95967.06
2023-01-17T10:23:50.008Z,95960.97
2023-01-17T10:25:57.635Z,95952.16
2023-01-17T10:28:07.456Z,95956.84
2023-01-17T10:30:29.495Z,95952.69
2023-01-17T10:32:44.942Z,95960.28
2023-01-17T10:34:52.916Z,95956.63
2023-01-17T10:37:06.180Z,95958.84
2023-01-17T10:39:21.920Z,95952.25
2023-01-17T10:41:32.417Z,95954.75
2023-01-17T10:43:48.215Z,95954.63
2023-01-17T10:45:58.104Z,95953.81
2023-01-17T10:48:18.174Z,95952.88
2023-01-17T10:50:26.395Z,95955.44
2023-01-17T10:52:43.248Z,95961.72
2023-01-17T10:55:04.077Z,95963.91
2023-01-17T10:57:15.429Z,95968.28
2023-01-17T10:59:30.277Z,95965.63
2023-01-17T11:01:35.852Z,95961.75
2023-01-17T11:03:45.207Z,95966.78
2023-01-17T11:06:19.774Z,95967.88
2023-01-17T11:08:25.633Z,95964.44
2023-01-17T11:10:44.610Z,95976.72
2023-01-17T11:12:50.403Z,95975.47
2023-01-17T11:15:04.949Z,95976.00
2023-01-17T11:17:12.296Z,95977.22
2023-01-17T11:19:30.536Z,95974.88
2023-01-17T11:21:36.084Z,95980.19
2023-01-17T11:23:44.389Z,95974.47
2023-01-17T11:25:55.580Z,95981.09
2023-01-17T11:28:04.173Z,95975.34
2023-01-17T11:30:19.953Z,95972.66
2023-01-17T11:32:33.518Z,95974.19
2023-01-17T11:34:41.009Z,95971.16
2023-01-17T11:36:46.367Z,95962.22
2023-01-17T11:39:02.804Z,95962.09
2023-01-17T11:41:25.432Z,95963.31
2023-01-17T11:43:30.758Z,95960.72
2023-01-17T11:45:37.196Z,95961.34
2023-01-17T11:47:42.132Z,95964.34
2023-01-17T11:49:52.104Z,95958.13
2023-01-17T11:51:57.043Z,95952.66
2023-01-17T11:54:19.427Z,95959.19
2023-01-17T11:56:36.515Z,95954.34
2023-01-17T11:58:45.904Z,95952.75
2023-01-17T12:00:54.921Z,95948.53
2023-01-17T12:03:31.306Z,95953.06
2023-01-17T12:05:58.909Z,95950.75
2023-01-17T12:08:16.669Z,95952.00
2023-01-17T12:10:31.581Z,95951.31
2023-01-17T12:13:15.477Z,95952.75
2023-01-17T12:15:36.167Z,95949.53
2023-01-17T12:18:05.818Z,95941.88
2023-01-17T12:20:24.501Z,95951.97
2023-01-17T12:22:54.464Z,95941.28
2023-01-17T12:25:27.701Z,95930.88
2023-01-17T12:27:46.058Z,95926.94
2023-01-17T12:30:02.466Z,95935.97
2023-01-17T12:32:56.705Z,95923.09
2023-01-17T12:35:11.487Z,95922.47
2023-01-17T12:37:24.708Z,95929.88
2023-01-17T12:39:42.417Z,95922.41
2023-01-17T12:42:01.393Z,95922.97
2023-01-17T12:44:06.629Z,95926.16
2023-01-17T12:46:23.620Z,95919.16
2023-01-17T12:48:37.796Z,95918.19
2023-01-17T12:50:51.732Z,95921.75
2023-01-17T12:53:06.934Z,95920.91
2023-01-17T12:55:23.090Z,95911.63
2023-01-17T12:57:34.842Z,95909.06
2023-01-17T12:59:47.045Z,95906.19
2023-01-17T13:01:58.366Z,95900.56
2023-01-17T13:04:19.433Z,95899.97
2023-01-17T13:06:32.754Z,95894.81
2023-01-17T13:08:46.594Z,95882.28
2023-01-17T13:10:59.353Z,95870.69
2023-01-17T13:13:23.989Z,95874.09
2023-01-17T13:15:37.947Z,95877.53
2023-01-17T13:17:49.638Z,95864.38
2023-01-17T13:20:02.043Z,95854.41
2023-01-17T13:22:10.539Z,95854.94
2023-01-17T13:24:34.609Z,95856.56
2023-01-17T13:26:58.736Z,95860.03
2023-01-17T13:29:17.900Z,95854.75
2023-01-17T13:31:59.940Z,95851.16
2023-01-17T13:34:35.179Z,95850.25
2023-01-17T13:36:57.876Z,95857.00
2023-01-17T13:39:34.505Z,95857.88
2023-01-17T13:41:50.585Z,95855.63
2023-01-17T13:44:08.176Z,95857.03
2023-01-17T13:46:13.311Z,95853.34
2023-01-17T13:48:30.779Z,95855.22
2023-01-17T13:50:53.098Z,95853.66
2023-01-17T13:52:58.049Z,95850.13
2023-01-17T13:55:05.149Z,95851.94
2023-01-17T13:57:41.844Z,95849.53
2023-01-17T13:59:47.022Z,95855.25
2023-01-17T14:01:54.531Z,95868.66
2023-01-17T14:04:09.076Z,95851.63
2023-01-17T14:06:36.219Z,95865.00
2023-01-17T14:08:48.434Z,95866.75
2023-01-17T14:10:56.408Z,95877.41
2023-01-17T14:13:04.560Z,95882.63
2023-01-17T14:15:23.256Z,95874.28
2023-01-17T14:17:55.883Z,95883.31
2023-01-17T14:20:22.592Z,95891.91
2023-01-17T14:22:30.659Z,95900.88
2023-01-17T14:24:35.567Z,95898.75
2023-01-17T14:26:50.356Z,95903.44
2023-01-17T14:29:00.364Z,95898.59
2023-01-17T14:31:14.030Z,95893.69
2023-01-17T14:33:26.043Z,95894.19
2023-01-17T14:35:34.407Z,95888.22
2023-01-17T14:37:48.601Z,95889.31
2023-01-17T14:39:54.181Z,95890.84
2023-01-17T14:41:59.212Z,95895.13
2023-01-17T14:44:08.244Z,95891.91
2023-01-17T14:46:25.295Z,95896.41
2023-01-17T14:48:32.061Z,95901.84
2023-01-17T14:50:41.089Z,95908.06
2023-01-17T14:52:46.624Z,95908.22
2023-01-17T14:54:53.658Z,95907.06
2023-01-17T14:57:28.515Z,95905.28
2023-01-17T14:59:36.201Z,95890.09
2023-01-17T15:01:41.264Z,95890.28
2023-01-17T15:03:49.382Z,95886.88
2023-01-17T15:05:58.431Z,95880.09
2023-01-17T15:08:04.207Z,95877.53
2023-01-17T15:10:13.802Z,95873.38
2023-01-17T15:12:19.750Z,95876.31
2023-01-17T15:14:30.525Z,95872.13
2023-01-17T15:16:41.101Z,95872.94
2023-01-17T15:18:46.355Z,95874.19
2023-01-17T15:20:57.440Z,95878.16
2023-01-17T15:23:02.691Z,95886.94
2023-01-17T15:25:10.155Z,95881.97
2023-01-17T15:27:17.283Z,95887.53
2023-01-17T15:29:27.880Z,95892.19
2023-01-17T15:31:46.140Z,95892.63
2023-01-17T15:33:57.414Z,95879.94
2023-01-17T15:36:04.475Z,95869.31
2023-01-17T15:38:16.778Z,95874.03
2023-01-17T15:40:24.985Z,95869.84
2023-01-17T15:42:33.402Z,95864.56
2023-01-17T15:44:48.394Z,95876.28
2023-01-17T15:46:56.873Z,95866.78
2023-01-17T15:49:20.799Z,95860.91
2023-01-17T15:51:41.531Z,95856.56
2023-01-17T15:53:46.864Z,95859.34
2023-01-17T15:55:51.907Z,95851.41
2023-01-17T15:57:57.165Z,95846.16
2023-01-17T16:00:07.274Z,95854.66
2023-01-17T16:02:36.626Z,95850.00
2023-01-17T16:04:42.288Z,95848.38
2023-01-17T16:06:48.206Z,95853.69
2023-01-17T16:08:55.403Z,95857.25
2023-01-17T16:11:06.615Z,95864.72
2023-01-17T16:13:15.188Z,95856.59
2023-01-17T16:15:22.145Z,95851.06
2023-01-17T16:17:30.818Z,95848.94
2023-01-17T16:19:36.428Z,95852.94
2023-01-17T16:21:44.999Z,95856.44
2023-01-17T16:23:50.623Z,95861.47
2023-01-17T16:25:55.691Z,95859.13
2023-01-17T16:28:00.927Z,95864.69
2023-01-17T16:30:06.994Z,95862.91
2023-01-17T16:32:12.510Z,95874.06
2023-01-17T16:34:20.037Z,95884.00
2023-01-17T16:36:25.409Z,95879.41
2023-01-17T16:38:32.159Z,95890.25
2023-01-17T16:40:43.892Z,95889.44
2023-01-17T16:42:50.485Z,95890.88
2023-01-17T16:44:56.173Z,95893.50
2023-01-17T16:47:04.145Z,95893.66
2023-01-17T16:49:09.417Z,95888.72
2023-01-17T16:51:17.247Z,95892.56
2023-01-17T16:53:25.195Z,95891.13
2023-01-17T16:55:30.231Z,95899.38
2023-01-17T16:57:35.632Z,95895.38
2023-01-17T16:59:50.404Z,95897.75
2023-01-17T17:01:57.281Z,95915.38
2023-01-17T17:04:02.332Z,95917.28
2023-01-17T17:06:07.923Z,95919.09
2023-01-17T17:08:16.197Z,95917.28
2023-01-17T17:10:25.212Z,95927.25
2023-01-17T17:12:30.207Z,95921.38
2023-01-17T17:14:35.116Z,95928.97
2023-01-17T17:16:40.399Z,95926.31
2023-01-17T17:18:47.455Z,95935.66
2023-01-17T17:20:52.373Z,95934.94
2023-01-17T17:23:00.478Z,95935.09
2023-01-17T17:25:09.581Z,95932.84
2023-01-17T17:27:14.899Z,95938.69
2023-01-17T17:29:19.982Z,95941.97
2023-01-17T17:31:24.986Z,95941.88
2023-01-17T17:33:30.372Z,95944.22
2023-01-17T17:35:37.531Z,95939.09
2023-01-17T17:37:42.424Z,95946.41
2023-01-17T17:39:47.457Z,95951.53
2023-01-17T17:41:55.116Z,95958.06
2023-01-17T17:44:00.938Z,95952.19
2023-01-17T17:46:05.868Z,95958.59
2023-01-17T17:48:10.858Z,95962.06
2023-01-17T17:50:15.926Z,95963.66
2023-01-17T17:52:20.880Z,95963.75
2023-01-17T17:54:27.400Z,95967.25
2023-01-17T17:56:34.948Z,95955.63
2023-01-17T17:58:43.786Z,95959.38
2023-01-17T18:00:51.686Z,95958.81
2023-01-17T18:02:56.581Z,95961.75
2023-01-17T18:05:02.326Z,95956.19
2023-01-17T18:07:07.365Z,95961.00
2023-01-17T18:09:15.366Z,95963.00
2023-01-17T18:11:22.860Z,95964.25
2023-01-17T18:13:27.792Z,95965.63
2023-01-17T18:15:35.361Z,95967.53
2023-01-17T18:17:40.292Z,95964.28
2023-01-17T18:19:46.256Z,95964.28
2023-01-17T18:21:52.558Z,95964.63
2023-01-17T18:24:00.103Z,95961.44
2023-01-17T18:26:05.021Z,95961.13
2023-01-17T18:28:09.922Z,95960.16
2023-01-17T18:30:15.555Z,95963.00
2023-01-17T18:32:23.129Z,95965.50
2023-01-17T18:34:30.611Z,95964.63
2023-01-17T18:36:36.819Z,95966.13
2023-01-17T18:38:44.023Z,95965.31
2023-01-17T18:40:48.905Z,95969.41
2023-01-17T18:42:54.525Z,95966.13
2023-01-17T18:44:59.909Z,95968.97
2023-01-17T18:47:05.584Z,95968.25
2023-01-17T18:49:15.475Z,95960.66
2023-01-17T18:51:23.897Z,95958.13
2023-01-17T18:53:29.778Z,95967.88
2023-01-17T18:55:34.729Z,95961.50
2023-01-17T18:57:39.691Z,95964.97
2023-01-17T18:59:45.583Z,95963.44
2023-01-17T19:01:50.927Z,95970.66
2023-01-17T19:03:59.149Z,95960.88
2023-01-17T19:06:08.907Z,95964.88
2023-01-17T19:08:13.858Z,95959.88
2023-01-17T19:10:20.818Z,95961.72
2023-01-17T19:12:26.342Z,95961.91
2023-01-17T19:14:32.053Z,95963.34
2023-01-17T19:16:41.986Z,95960.09
2023-01-17T19:18:47.048Z,95964.09
2023-01-17T19:20:52.235Z,95969.88
2023-01-17T19:23:00.113Z,95973.38
2023-01-17T19:25:05.480Z,95973.31
2023-01-17T19:27:10.987Z,95975.03
2023-01-17T19:29:16.136Z,95978.34
2023-01-17T19:31:24.097Z,95975.13
2023-01-17T19:33:29.393Z,95970.25
2023-01-17T19:35:37.039Z,95978.50
2023-01-17T19:37:42.870Z,95974.28
2023-01-17T19:39:50.354Z,95975.97
2023-01-17T19:41:55.290Z,95969.38
2023-01-17T19:44:03.251Z,95968.44
2023-01-17T19:46:10.726Z,95975.94
2023-01-17T19:48:16.887Z,95987.38
2023-01-17T19:50:22.184Z,95989.78
2023-01-17T19:52:27.163Z,95984.91
2023-01-17T19:54:33.006Z,95996.06
2023-01-17T19:56:40.476Z,95985.94
2023-01-17T19:58:47.216Z,95990.75
2023-01-17T20:00:52.392Z,95993.25
2023-01-17T20:02:57.798Z,95999.91
2023-01-17T20:05:02.732Z,96010.47
2023-01-17T20:07:07.665Z,96012.41
2023-01-17T20:09:12.958Z,96012.47
2023-01-17T20:11:21.206Z,96004.38
2023-01-17T20:13:29.240Z,96011.47
2023-01-17T20:15:34.181Z,96020.41
2023-01-17T20:17:39.118Z,96020.31
2023-01-17T20:19:46.332Z,96026.97
2023-01-17T20:21:55.601Z,96028.53
2023-01-17T20:24:03.318Z,96034.47
2023-01-17T20:26:09.052Z,96034.31
2023-01-17T20:28:13.948Z,96033.75
2023-01-17T20:30:24.558Z,96035.47
2023-01-17T20:32:29.503Z,96028.03
2023-01-17T20:34:34.408Z,96032.22
2023-01-17T20:36:40.102Z,96040.41
2023-01-17T20:38:48.199Z,96037.34
2023-01-17T20:40:57.925Z,96039.69
2023-01-17T20:43:03.220Z,96029.09
2023-01-17T20:45:10.002Z,96039.13
2023-01-17T20:47:18.752Z,96037.41
2023-01-17T20:49:23.773Z,96039.13
2023-01-17T20:51:34.414Z,96042.50
2023-01-17T20:53:41.622Z,96044.25
2023-01-17T20:55:48.438Z,96045.91
2023-01-17T20:57:53.675Z,96035.94
2023-01-17T21:00:00.102Z,96045.00
2023-01-17T21:02:05.168Z,96046.69
2023-01-17T21:04:14.733Z,96052.38
2023-01-17T21:06:21.576Z,96048.34
2023-01-17T21:08:27.783Z,96046.00
2023-01-17T21:10:33.081Z,96050.91
2023-01-17T21:12:38.014Z,96059.00
2023-01-17T21:14:43.680Z,96055.81
2023-01-17T21:16:50.559Z,96066.59
2023-01-17T21:18:55.731Z,96070.03
2023-01-17T21:21:10.438Z,96070.59
2023-01-17T21:23:17.938Z,96074.03
2023-01-17T21:25:23.488Z,96070.69
2023-01-17T21:27:28.757Z,96074.13
2023-01-17T21:29:33.710Z,96069.91
2023-01-17T21:31:40.845Z,96071.50
2023-01-17T21:33:46.446Z,96073.97
2023-01-17T21:35:51.392Z,96071.50
2023-01-17T21:37:59.691Z,96062.56
2023-01-17T21:40:05.413Z,96075.78
2023-01-17T21:42:10.368Z,96074.13
2023-01-17T21:44:19.652Z,96078.78
2023-01-17T21:46:25.245Z,96072.88
2023-01-17T21:48:30.240Z,96065.66
2023-01-17T21:50:35.213Z,96068.22
2023-01-17T21:52:40.407Z,96070.41
2023-01-17T21:55:00.364Z,96064.03
2023-01-17T21:57:20.777Z,96064.22
2023-01-17T21:59:25.659Z,96061.09
2023-01-17T22:01:32.817Z,96056.19
2023-01-17T22:03:38.540Z,96069.28
2023-01-17T22:05:44.035Z,96069.13
2023-01-17T22:08:02.757Z,96069.06
2023-01-17T22:10:12.452Z,96075.34
2023-01-17T22:12:17.399Z,96074.53
2023-01-17T22:14:22.992Z,96077.00
2023-01-17T22:16:29.292Z,96081.09
2023-01-17T22:18:37.129Z,96084.28
2023-01-17T22:20:43.239Z,96081.94
2023-01-17T22:22:48.793Z,96077.00
2023-01-17T22:24:53.702Z,96072.22
2023-01-17T22:27:01.662Z,96063.94
2023-01-17T22:29:08.762Z,96063.22
2023-01-17T22:31:16.772Z,96058.41
2023-01-17T22:33:22.382Z,96061.75
2023-01-17T22:35:28.421Z,96067.31
2023-01-17T22:37:34.811Z,96062.13
2023-01-17T22:39:40.870Z,96065.63
2023-01-17T22:41:45.774Z,96060.75
2023-01-17T22:43:58.475Z,96057.47
2023-01-17T22:46:03.975Z,96067.44
2023-01-17T22:48:10.107Z,96064.13
2023-01-17T22:50:16.100Z,96056.00
2023-01-17T22:52:21.030Z,96062.47
2023-01-17T22:54:26.409Z,96067.41
2023-01-17T22:56:34.313Z,96062.41
2023-01-17T22:58:42.173Z,96059.81
2023-01-17T23:00:51.349Z,96053.31
2023-01-17T23:02:57.013Z,96049.38
2023-01-17T23:05:02.511Z,96049.28
2023-01-17T23:07:07.767Z,96045.19
2023-01-17T23:09:17.227Z,96044.28
2023-01-17T23:11:46.223Z,96040.88
2023-01-17T23:13:51.461Z,96027.66
2023-01-17T23:16:11.465Z,96030.19
2023-01-17T23:18:29.036Z,96032.59
2023-01-17T23:20:33.908Z,96034.97
2023-01-17T23:22:39.573Z,96037.25
2023-01-17T23:24:47.646Z,96035.47
2023-01-17T23:27:04.837Z,96029.84
2023-01-17T23:29:10.156Z,96030.56
2023-01-17T23:31:17.680Z,96029.75
2023-01-17T23:33:22.573Z,96027.38
2023-01-17T23:35:30.084Z,96020.19
2023-01-17T23:37:47.540Z,96017.69
2023-01-17T23:39:53.199Z,96020.13
2023-01-17T23:42:10.544Z,96014.44
2023-01-17T23:44:15.966Z,96016.00
2023-01-17T23:46:24.876Z,96009.53
2023-01-17T23:48:30.875Z,96007.88
2023-01-17T23:50:36.217Z,96001.41
2023-01-17T23:52:41.417Z,96007.13
2023-01-17T23:54:48.550Z,96011.13
2023-01-17T23:56:53.549Z,96005.31
2023-01-17T23:58:58.783Z,95996.25
